sensor_id;sensor_type;location;lat;lon;timestamp;temperature;humidity
48666;DHT22;34452;50.796;4.994;2023-04-25T00:01:48;8.50;99.90
48666;DHT22;34452;50.796;4.994;2023-04-25T00:04:14;8.60;99.90
48666;DHT22;34452;50.796;4.994;2023-04-25T00:06:40;8.70;99.90
48666;DHT22;34452;50.796;4.994;2023-04-25T00:09:06;8.70;99.90
48666;DHT22;34452;50.796;4.994;2023-04-25T00:11:35;8.70;99.90
48666;DHT22;34452;50.796;4.994;2023-04-25T00:14:01;8.70;99.90
48666;DHT22;34452;50.796;4.994;2023-04-25T00:16:28;8.70;99.90
48666;DHT22;34452;50.796;4.994;2023-04-25T00:18:55;8.70;99.90
48666;DHT22;34452;50.796;4.994;2023-04-25T00:21:21;8.70;99.90
48666;DHT22;34452;50.796;4.994;2023-04-25T00:23:47;8.70;99.90
48666;DHT22;34452;50.796;4.994;2023-04-25T00:26:13;8.70;99.90
48666;DHT22;34452;50.796;4.994;2023-04-25T00:28:39;8.70;99.90
48666;DHT22;34452;50.796;4.994;2023-04-25T00:31:05;8.70;99.90
48666;DHT22;34452;50.796;4.994;2023-04-25T00:33:31;8.70;99.90
48666;DHT22;34452;50.796;4.994;2023-04-25T00:35:57;8.70;99.90
48666;DHT22;34452;50.796;4.994;2023-04-25T00:38:23;8.60;99.90
48666;DHT22;34452;50.796;4.994;2023-04-25T00:40:48;8.70;99.90
48666;DHT22;34452;50.796;4.994;2023-04-25T00:43:14;8.60;99.90
48666;DHT22;34452;50.796;4.994;2023-04-25T00:45:40;8.40;99.90
48666;DHT22;34452;50.796;4.994;2023-04-25T00:48:07;8.40;99.90
48666;DHT22;34452;50.796;4.994;2023-04-25T00:50:34;8.50;99.90
48666;DHT22;34452;50.796;4.994;2023-04-25T00:53:00;8.50;99.90
48666;DHT22;34452;50.796;4.994;2023-04-25T00:55:27;8.50;99.90
48666;DHT22;34452;50.796;4.994;2023-04-25T00:57:53;8.50;99.90
48666;DHT22;34452;50.796;4.994;2023-04-25T01:00:19;8.50;99.90
48666;DHT22;34452;50.796;4.994;2023-04-25T01:02:46;8.50;99.90
48666;DHT22;34452;50.796;4.994;2023-04-25T01:05:12;8.50;99.90
48666;DHT22;34452;50.796;4.994;2023-04-25T01:07:38;8.50;99.90
48666;DHT22;34452;50.796;4.994;2023-04-25T01:10:04;8.50;99.90
48666;DHT22;34452;50.796;4.994;2023-04-25T01:12:31;8.40;99.90
48666;DHT22;34452;50.796;4.994;2023-04-25T01:14:57;8.40;99.90
48666;DHT22;34452;50.796;4.994;2023-04-25T01:17:23;8.40;99.90
48666;DHT22;34452;50.796;4.994;2023-04-25T01:19:49;8.30;99.90
48666;DHT22;34452;50.796;4.994;2023-04-25T01:22:16;8.30;99.90
48666;DHT22;34452;50.796;4.994;2023-04-25T01:24:42;8.30;99.90
48666;DHT22;34452;50.796;4.994;2023-04-25T01:27:08;8.30;99.90
48666;DHT22;34452;50.796;4.994;2023-04-25T01:29:35;8.40;99.90
48666;DHT22;34452;50.796;4.994;2023-04-25T01:32:01;8.40;99.90
48666;DHT22;34452;50.796;4.994;2023-04-25T01:34:27;8.40;99.90
48666;DHT22;34452;50.796;4.994;2023-04-25T01:36:53;8.40;99.90
48666;DHT22;34452;50.796;4.994;2023-04-25T01:39:19;8.40;99.90
48666;DHT22;34452;50.796;4.994;2023-04-25T01:41:46;8.40;99.90
48666;DHT22;34452;50.796;4.994;2023-04-25T01:44:12;8.40;99.90
48666;DHT22;34452;50.796;4.994;2023-04-25T01:46:38;8.40;99.90
48666;DHT22;34452;50.796;4.994;2023-04-25T01:49:04;8.30;99.90
48666;DHT22;34452;50.796;4.994;2023-04-25T01:51:30;8.30;99.90
48666;DHT22;34452;50.796;4.994;2023-04-25T01:53:57;8.30;99.90
48666;DHT22;34452;50.796;4.994;2023-04-25T01:56:22;8.30;99.90
48666;DHT22;34452;50.796;4.994;2023-04-25T01:58:48;8.30;99.90
48666;DHT22;34452;50.796;4.994;2023-04-25T02:01:14;8.30;99.90
48666;DHT22;34452;50.796;4.994;2023-04-25T02:03:40;8.30;99.90
48666;DHT22;34452;50.796;4.994;2023-04-25T02:06:06;8.30;99.90
48666;DHT22;34452;50.796;4.994;2023-04-25T02:08:32;8.30;99.90
48666;DHT22;34452;50.796;4.994;2023-04-25T02:10:58;8.30;99.90
48666;DHT22;34452;50.796;4.994;2023-04-25T02:13:24;8.30;99.90
48666;DHT22;34452;50.796;4.994;2023-04-25T02:15:50;8.20;99.90
48666;DHT22;34452;50.796;4.994;2023-04-25T02:18:15;8.20;99.90
48666;DHT22;34452;50.796;4.994;2023-04-25T02:20:42;8.10;99.90
48666;DHT22;34452;50.796;4.994;2023-04-25T02:23:08;8.10;99.90
48666;DHT22;34452;50.796;4.994;2023-04-25T02:25:34;8.10;99.90
48666;DHT22;34452;50.796;4.994;2023-04-25T02:27:59;8.10;99.90
48666;DHT22;34452;50.796;4.994;2023-04-25T02:30:25;8.10;99.90
48666;DHT22;34452;50.796;4.994;2023-04-25T02:32:51;8.10;99.90
48666;DHT22;34452;50.796;4.994;2023-04-25T02:35:17;8.00;99.90
48666;DHT22;34452;50.796;4.994;2023-04-25T02:37:43;8.00;99.90
48666;DHT22;34452;50.796;4.994;2023-04-25T02:40:09;7.90;99.90
48666;DHT22;34452;50.796;4.994;2023-04-25T02:42:35;7.90;99.90
48666;DHT22;34452;50.796;4.994;2023-04-25T02:45:01;7.80;99.90
48666;DHT22;34452;50.796;4.994;2023-04-25T02:47:27;7.80;99.90
48666;DHT22;34452;50.796;4.994;2023-04-25T02:49:53;7.80;99.90
48666;DHT22;34452;50.796;4.994;2023-04-25T02:52:19;7.70;99.90
48666;DHT22;34452;50.796;4.994;2023-04-25T02:54:44;7.80;99.90
48666;DHT22;34452;50.796;4.994;2023-04-25T02:57:10;7.80;99.90
48666;DHT22;34452;50.796;4.994;2023-04-25T02:59:36;7.80;99.90
48666;DHT22;34452;50.796;4.994;2023-04-25T03:02:01;7.90;99.90
48666;DHT22;34452;50.796;4.994;2023-04-25T03:04:27;7.90;99.90
48666;DHT22;34452;50.796;4.994;2023-04-25T03:06:53;7.90;99.90
48666;DHT22;34452;50.796;4.994;2023-04-25T03:09:19;7.90;99.90
48666;DHT22;34452;50.796;4.994;2023-04-25T03:11:45;7.90;99.90
48666;DHT22;34452;50.796;4.994;2023-04-25T03:14:12;7.90;99.90
48666;DHT22;34452;50.796;4.994;2023-04-25T03:16:38;8.00;99.90
48666;DHT22;34452;50.796;4.994;2023-04-25T03:19:04;7.90;99.90
48666;DHT22;34452;50.796;4.994;2023-04-25T03:21:31;7.90;99.90
48666;DHT22;34452;50.796;4.994;2023-04-25T03:23:58;7.90;99.90
48666;DHT22;34452;50.796;4.994;2023-04-25T03:26:24;7.90;99.90
48666;DHT22;34452;50.796;4.994;2023-04-25T03:28:50;7.90;99.90
48666;DHT22;34452;50.796;4.994;2023-04-25T03:31:16;7.90;99.90
48666;DHT22;34452;50.796;4.994;2023-04-25T03:33:42;7.90;99.90
48666;DHT22;34452;50.796;4.994;2023-04-25T03:36:08;7.90;99.90
48666;DHT22;34452;50.796;4.994;2023-04-25T03:38:34;7.90;99.90
48666;DHT22;34452;50.796;4.994;2023-04-25T03:41:00;7.90;99.90
48666;DHT22;34452;50.796;4.994;2023-04-25T03:43:26;7.90;99.90
48666;DHT22;34452;50.796;4.994;2023-04-25T03:45:52;7.90;99.90
48666;DHT22;34452;50.796;4.994;2023-04-25T03:48:17;8.00;99.90
48666;DHT22;34452;50.796;4.994;2023-04-25T03:50:43;8.00;99.90
48666;DHT22;34452;50.796;4.994;2023-04-25T03:53:09;7.90;99.90
48666;DHT22;34452;50.796;4.994;2023-04-25T03:55:35;7.90;99.90
48666;DHT22;34452;50.796;4.994;2023-04-25T03:58:00;8.00;99.90
48666;DHT22;34452;50.796;4.994;2023-04-25T04:00:26;7.90;99.90
48666;DHT22;34452;50.796;4.994;2023-04-25T04:02:52;7.90;99.90
48666;DHT22;34452;50.796;4.994;2023-04-25T04:05:17;8.00;99.90
48666;DHT22;34452;50.796;4.994;2023-04-25T04:07:43;7.90;99.90
48666;DHT22;34452;50.796;4.994;2023-04-25T04:10:10;7.90;99.90
48666;DHT22;34452;50.796;4.994;2023-04-25T04:12:36;7.90;99.90
48666;DHT22;34452;50.796;4.994;2023-04-25T04:15:03;7.90;99.90
48666;DHT22;34452;50.796;4.994;2023-04-25T04:17:30;7.90;99.90
48666;DHT22;34452;50.796;4.994;2023-04-25T04:19:56;7.90;99.90
48666;DHT22;34452;50.796;4.994;2023-04-25T04:22:22;7.90;99.90
48666;DHT22;34452;50.796;4.994;2023-04-25T04:24:48;7.90;99.90
48666;DHT22;34452;50.796;4.994;2023-04-25T04:27:16;7.90;99.90
48666;DHT22;34452;50.796;4.994;2023-04-25T04:29:43;7.90;99.90
48666;DHT22;34452;50.796;4.994;2023-04-25T04:32:09;7.80;99.90
48666;DHT22;34452;50.796;4.994;2023-04-25T04:34:35;7.80;99.90
48666;DHT22;34452;50.796;4.994;2023-04-25T04:37:01;7.80;99.90
48666;DHT22;34452;50.796;4.994;2023-04-25T04:39:27;7.70;99.90
48666;DHT22;34452;50.796;4.994;2023-04-25T04:41:52;7.70;99.90
48666;DHT22;34452;50.796;4.994;2023-04-25T04:44:19;7.70;99.90
48666;DHT22;34452;50.796;4.994;2023-04-25T04:46:45;7.60;99.90
48666;DHT22;34452;50.796;4.994;2023-04-25T04:49:12;7.50;99.90
48666;DHT22;34452;50.796;4.994;2023-04-25T04:51:39;7.40;99.90
48666;DHT22;34452;50.796;4.994;2023-04-25T04:54:06;7.40;99.90
48666;DHT22;34452;50.796;4.994;2023-04-25T04:56:32;7.40;99.90
48666;DHT22;34452;50.796;4.994;2023-04-25T04:58:58;7.40;99.90
48666;DHT22;34452;50.796;4.994;2023-04-25T05:01:24;7.30;99.90
48666;DHT22;34452;50.796;4.994;2023-04-25T05:03:51;7.30;99.90
48666;DHT22;34452;50.796;4.994;2023-04-25T05:06:18;7.30;99.90
48666;DHT22;34452;50.796;4.994;2023-04-25T05:08:44;7.20;99.90
48666;DHT22;34452;50.796;4.994;2023-04-25T05:11:10;7.20;99.90
48666;DHT22;34452;50.796;4.994;2023-04-25T05:13:36;7.30;99.90
48666;DHT22;34452;50.796;4.994;2023-04-25T05:16:02;7.30;99.90
48666;DHT22;34452;50.796;4.994;2023-04-25T05:18:28;7.30;99.90
48666;DHT22;34452;50.796;4.994;2023-04-25T05:20:54;7.30;99.90
48666;DHT22;34452;50.796;4.994;2023-04-25T05:23:19;7.30;99.90
48666;DHT22;34452;50.796;4.994;2023-04-25T05:25:45;7.40;99.90
48666;DHT22;34452;50.796;4.994;2023-04-25T05:28:12;7.40;99.90
48666;DHT22;34452;50.796;4.994;2023-04-25T05:30:39;7.50;99.90
48666;DHT22;34452;50.796;4.994;2023-04-25T05:33:04;7.50;99.90
48666;DHT22;34452;50.796;4.994;2023-04-25T05:35:30;7.50;99.90
48666;DHT22;34452;50.796;4.994;2023-04-25T05:37:56;7.50;99.90
48666;DHT22;34452;50.796;4.994;2023-04-25T05:40:22;7.50;99.90
48666;DHT22;34452;50.796;4.994;2023-04-25T05:42:47;7.40;99.90
48666;DHT22;34452;50.796;4.994;2023-04-25T05:45:13;7.50;99.90
48666;DHT22;34452;50.796;4.994;2023-04-25T05:47:39;7.50;99.90
48666;DHT22;34452;50.796;4.994;2023-04-25T05:50:05;7.50;99.90
48666;DHT22;34452;50.796;4.994;2023-04-25T05:52:31;7.60;99.90
48666;DHT22;34452;50.796;4.994;2023-04-25T05:54:57;7.60;99.90
48666;DHT22;34452;50.796;4.994;2023-04-25T05:57:24;7.60;99.90
48666;DHT22;34452;50.796;4.994;2023-04-25T05:59:50;7.60;99.90
48666;DHT22;34452;50.796;4.994;2023-04-25T06:02:15;7.60;99.90
48666;DHT22;34452;50.796;4.994;2023-04-25T06:04:41;7.70;99.90
48666;DHT22;34452;50.796;4.994;2023-04-25T06:07:07;7.70;99.90
48666;DHT22;34452;50.796;4.994;2023-04-25T06:09:33;7.70;99.90
48666;DHT22;34452;50.796;4.994;2023-04-25T06:11:59;7.80;99.90
48666;DHT22;34452;50.796;4.994;2023-04-25T06:14:25;7.80;99.90
48666;DHT22;34452;50.796;4.994;2023-04-25T06:16:51;7.80;99.90
48666;DHT22;34452;50.796;4.994;2023-04-25T06:19:16;7.90;99.90
48666;DHT22;34452;50.796;4.994;2023-04-25T06:21:44;7.90;99.90
48666;DHT22;34452;50.796;4.994;2023-04-25T06:24:09;7.90;99.90
48666;DHT22;34452;50.796;4.994;2023-04-25T06:26:35;7.90;99.90
48666;DHT22;34452;50.796;4.994;2023-04-25T06:29:01;7.90;99.90
48666;DHT22;34452;50.796;4.994;2023-04-25T06:31:27;7.90;99.90
48666;DHT22;34452;50.796;4.994;2023-04-25T06:33:54;7.90;99.90
48666;DHT22;34452;50.796;4.994;2023-04-25T06:36:21;7.90;99.90
48666;DHT22;34452;50.796;4.994;2023-04-25T06:38:51;7.90;99.90
48666;DHT22;34452;50.796;4.994;2023-04-25T06:41:17;8.00;99.90
48666;DHT22;34452;50.796;4.994;2023-04-25T06:43:44;8.00;99.90
48666;DHT22;34452;50.796;4.994;2023-04-25T06:46:10;8.10;99.90
48666;DHT22;34452;50.796;4.994;2023-04-25T06:48:36;8.00;99.90
48666;DHT22;34452;50.796;4.994;2023-04-25T06:51:02;8.00;99.90
48666;DHT22;34452;50.796;4.994;2023-04-25T06:53:28;8.00;99.90
48666;DHT22;34452;50.796;4.994;2023-04-25T06:55:54;8.00;99.90
48666;DHT22;34452;50.796;4.994;2023-04-25T06:58:19;8.00;99.90
48666;DHT22;34452;50.796;4.994;2023-04-25T07:00:45;8.10;99.90
48666;DHT22;34452;50.796;4.994;2023-04-25T07:03:11;8.10;99.90
48666;DHT22;34452;50.796;4.994;2023-04-25T07:05:37;8.10;99.90
48666;DHT22;34452;50.796;4.994;2023-04-25T07:08:03;8.20;99.90
48666;DHT22;34452;50.796;4.994;2023-04-25T07:10:29;8.20;99.90
48666;DHT22;34452;50.796;4.994;2023-04-25T07:12:55;8.30;99.90
48666;DHT22;34452;50.796;4.994;2023-04-25T07:15:21;8.40;99.90
48666;DHT22;34452;50.796;4.994;2023-04-25T07:17:46;8.50;99.90
48666;DHT22;34452;50.796;4.994;2023-04-25T07:20:12;8.50;99.90
48666;DHT22;34452;50.796;4.994;2023-04-25T07:22:38;8.50;99.90
48666;DHT22;34452;50.796;4.994;2023-04-25T07:25:04;8.50;99.90
48666;DHT22;34452;50.796;4.994;2023-04-25T07:27:31;8.60;99.90
48666;DHT22;34452;50.796;4.994;2023-04-25T07:29:57;8.60;99.90
48666;DHT22;34452;50.796;4.994;2023-04-25T07:32:23;8.80;99.90
48666;DHT22;34452;50.796;4.994;2023-04-25T07:34:48;8.80;99.90
48666;DHT22;34452;50.796;4.994;2023-04-25T07:37:14;8.80;99.90
48666;DHT22;34452;50.796;4.994;2023-04-25T07:39:41;8.90;99.90
48666;DHT22;34452;50.796;4.994;2023-04-25T07:42:07;9.00;99.90
48666;DHT22;34452;50.796;4.994;2023-04-25T07:44:34;9.00;99.90
48666;DHT22;34452;50.796;4.994;2023-04-25T07:47:06;9.10;99.90
48666;DHT22;34452;50.796;4.994;2023-04-25T07:49:33;9.00;99.90
48666;DHT22;34452;50.796;4.994;2023-04-25T07:52:00;9.10;99.90
48666;DHT22;34452;50.796;4.994;2023-04-25T07:54:26;9.10;99.90
48666;DHT22;34452;50.796;4.994;2023-04-25T07:56:52;9.20;99.90
48666;DHT22;34452;50.796;4.994;2023-04-25T07:59:19;9.20;99.90
48666;DHT22;34452;50.796;4.994;2023-04-25T08:01:44;9.30;99.90
48666;DHT22;34452;50.796;4.994;2023-04-25T08:04:10;9.30;99.90
48666;DHT22;34452;50.796;4.994;2023-04-25T08:06:36;9.30;99.90
48666;DHT22;34452;50.796;4.994;2023-04-25T08:09:02;9.30;99.90
48666;DHT22;34452;50.796;4.994;2023-04-25T08:11:29;9.40;99.90
48666;DHT22;34452;50.796;4.994;2023-04-25T08:13:55;9.40;99.90
48666;DHT22;34452;50.796;4.994;2023-04-25T08:16:21;9.40;99.90
48666;DHT22;34452;50.796;4.994;2023-04-25T08:18:47;9.30;99.90
48666;DHT22;34452;50.796;4.994;2023-04-25T08:21:13;9.30;99.90
48666;DHT22;34452;50.796;4.994;2023-04-25T08:23:39;9.40;99.90
48666;DHT22;34452;50.796;4.994;2023-04-25T08:26:05;9.40;99.90
48666;DHT22;34452;50.796;4.994;2023-04-25T08:28:31;9.50;99.90
48666;DHT22;34452;50.796;4.994;2023-04-25T08:30:57;9.50;99.90
48666;DHT22;34452;50.796;4.994;2023-04-25T08:33:22;9.50;99.90
48666;DHT22;34452;50.796;4.994;2023-04-25T08:35:48;9.50;99.90
48666;DHT22;34452;50.796;4.994;2023-04-25T08:38:14;9.50;99.90
48666;DHT22;34452;50.796;4.994;2023-04-25T08:40:40;9.40;99.90
48666;DHT22;34452;50.796;4.994;2023-04-25T08:43:07;9.40;99.90
48666;DHT22;34452;50.796;4.994;2023-04-25T08:45:48;9.30;99.90
48666;DHT22;34452;50.796;4.994;2023-04-25T08:48:15;9.20;99.90
48666;DHT22;34452;50.796;4.994;2023-04-25T08:50:49;8.90;99.90
48666;DHT22;34452;50.796;4.994;2023-04-25T08:53:16;8.80;99.90
48666;DHT22;34452;50.796;4.994;2023-04-25T08:55:45;8.80;99.90
48666;DHT22;34452;50.796;4.994;2023-04-25T08:58:12;8.80;99.90
48666;DHT22;34452;50.796;4.994;2023-04-25T09:00:39;8.80;99.90
48666;DHT22;34452;50.796;4.994;2023-04-25T09:03:05;8.80;99.90
48666;DHT22;34452;50.796;4.994;2023-04-25T09:05:33;8.70;99.90
48666;DHT22;34452;50.796;4.994;2023-04-25T09:08:00;8.70;99.90
48666;DHT22;34452;50.796;4.994;2023-04-25T09:10:26;8.80;99.90
48666;DHT22;34452;50.796;4.994;2023-04-25T09:13:11;8.80;99.90
48666;DHT22;34452;50.796;4.994;2023-04-25T09:15:52;8.80;99.90
48666;DHT22;34452;50.796;4.994;2023-04-25T09:18:35;8.80;99.90
48666;DHT22;34452;50.796;4.994;2023-04-25T09:21:21;8.70;99.90
48666;DHT22;34452;50.796;4.994;2023-04-25T09:23:48;8.70;99.90
48666;DHT22;34452;50.796;4.994;2023-04-25T09:26:16;8.50;99.90
48666;DHT22;34452;50.796;4.994;2023-04-25T09:28:42;8.50;99.90
48666;DHT22;34452;50.796;4.994;2023-04-25T09:31:10;8.60;99.90
48666;DHT22;34452;50.796;4.994;2023-04-25T09:33:37;8.70;99.90
48666;DHT22;34452;50.796;4.994;2023-04-25T09:36:04;9.00;99.90
48666;DHT22;34452;50.796;4.994;2023-04-25T09:38:31;9.10;99.90
48666;DHT22;34452;50.796;4.994;2023-04-25T09:40:58;9.30;99.90
48666;DHT22;34452;50.796;4.994;2023-04-25T09:43:25;9.30;99.90
48666;DHT22;34452;50.796;4.994;2023-04-25T09:45:54;9.50;99.90
48666;DHT22;34452;50.796;4.994;2023-04-25T09:48:24;9.50;99.90
48666;DHT22;34452;50.796;4.994;2023-04-25T09:51:09;9.60;99.90
48666;DHT22;34452;50.796;4.994;2023-04-25T09:53:37;9.90;99.90
48666;DHT22;34452;50.796;4.994;2023-04-25T09:56:05;10.20;99.90
48666;DHT22;34452;50.796;4.994;2023-04-25T09:58:33;10.70;99.90
48666;DHT22;34452;50.796;4.994;2023-04-25T10:01:01;11.20;99.90
48666;DHT22;34452;50.796;4.994;2023-04-25T10:03:30;11.30;99.90
48666;DHT22;34452;50.796;4.994;2023-04-25T10:08:41;10.50;99.90
48666;DHT22;34452;50.796;4.994;2023-04-25T10:11:08;10.30;99.90
48666;DHT22;34452;50.796;4.994;2023-04-25T10:13:35;10.10;99.90
48666;DHT22;34452;50.796;4.994;2023-04-25T10:16:03;10.00;99.90
48666;DHT22;34452;50.796;4.994;2023-04-25T10:18:30;9.90;99.90
48666;DHT22;34452;50.796;4.994;2023-04-25T10:20:59;9.90;99.90
48666;DHT22;34452;50.796;4.994;2023-04-25T10:23:25;9.90;99.90
48666;DHT22;34452;50.796;4.994;2023-04-25T10:25:52;9.70;99.90
48666;DHT22;34452;50.796;4.994;2023-04-25T10:28:18;9.70;99.90
48666;DHT22;34452;50.796;4.994;2023-04-25T10:31:01;9.60;99.90
48666;DHT22;34452;50.796;4.994;2023-04-25T10:33:46;9.50;99.90
48666;DHT22;34452;50.796;4.994;2023-04-25T10:36:17;9.50;99.90
48666;DHT22;34452;50.796;4.994;2023-04-25T10:38:44;9.60;99.90
48666;DHT22;34452;50.796;4.994;2023-04-25T10:41:11;9.70;99.90
48666;DHT22;34452;50.796;4.994;2023-04-25T10:43:40;9.70;99.90
48666;DHT22;34452;50.796;4.994;2023-04-25T10:49:02;9.60;99.90
48666;DHT22;34452;50.796;4.994;2023-04-25T10:51:30;9.70;99.90
48666;DHT22;34452;50.796;4.994;2023-04-25T10:56:28;10.00;99.90
48666;DHT22;34452;50.796;4.994;2023-04-25T11:01:54;10.40;99.90
48666;DHT22;34452;50.796;4.994;2023-04-25T11:04:23;10.80;99.90
48666;DHT22;34452;50.796;4.994;2023-04-25T11:07:13;10.90;98.20
48666;DHT22;34452;50.796;4.994;2023-04-25T11:09:41;11.10;97.30
48666;DHT22;34452;50.796;4.994;2023-04-25T11:12:09;11.30;95.90
48666;DHT22;34452;50.796;4.994;2023-04-25T11:14:35;11.60;95.50
48666;DHT22;34452;50.796;4.994;2023-04-25T11:17:01;11.90;93.40
48666;DHT22;34452;50.796;4.994;2023-04-25T11:19:28;12.10;92.50
48666;DHT22;34452;50.796;4.994;2023-04-25T11:21:56;12.30;92.30
48666;DHT22;34452;50.796;4.994;2023-04-25T11:24:35;12.30;91.50
48666;DHT22;34452;50.796;4.994;2023-04-25T11:27:02;12.50;90.20
48666;DHT22;34452;50.796;4.994;2023-04-25T11:29:30;12.60;86.90
48666;DHT22;34452;50.796;4.994;2023-04-25T11:31:56;12.80;84.10
48666;DHT22;34452;50.796;4.994;2023-04-25T11:34:24;12.90;79.30
48666;DHT22;34452;50.796;4.994;2023-04-25T11:36:51;13.30;84.30
48666;DHT22;34452;50.796;4.994;2023-04-25T11:39:19;13.30;81.10
48666;DHT22;34452;50.796;4.994;2023-04-25T11:41:46;12.30;81.40
48666;DHT22;34452;50.796;4.994;2023-04-25T11:44:11;11.60;82.90
48666;DHT22;34452;50.796;4.994;2023-04-25T11:46:37;11.40;80.10
48666;DHT22;34452;50.796;4.994;2023-04-25T11:49:03;11.40;83.00
48666;DHT22;34452;50.796;4.994;2023-04-25T11:51:30;11.30;79.40
48666;DHT22;34452;50.796;4.994;2023-04-25T11:54:03;11.60;77.60
48666;DHT22;34452;50.796;4.994;2023-04-25T11:56:28;12.00;81.80
48666;DHT22;34452;50.796;4.994;2023-04-25T11:58:57;12.20;82.60
48666;DHT22;34452;50.796;4.994;2023-04-25T12:01:40;12.50;80.40
48666;DHT22;34452;50.796;4.994;2023-04-25T12:04:24;12.90;75.80
48666;DHT22;34452;50.796;4.994;2023-04-25T12:06:52;13.00;75.50
48666;DHT22;34452;50.796;4.994;2023-04-25T12:09:23;13.00;74.20
48666;DHT22;34452;50.796;4.994;2023-04-25T12:11:54;12.80;71.60
48666;DHT22;34452;50.796;4.994;2023-04-25T12:14:22;12.40;73.10
48666;DHT22;34452;50.796;4.994;2023-04-25T12:16:50;12.00;73.40
48666;DHT22;34452;50.796;4.994;2023-04-25T12:19:19;11.60;74.90
48666;DHT22;34452;50.796;4.994;2023-04-25T12:21:45;11.50;75.00
48666;DHT22;34452;50.796;4.994;2023-04-25T12:24:13;11.30;77.40
48666;DHT22;34452;50.796;4.994;2023-04-25T12:26:52;11.00;80.40
48666;DHT22;34452;50.796;4.994;2023-04-25T12:29:32;10.80;84.00
48666;DHT22;34452;50.796;4.994;2023-04-25T12:31:59;10.60;83.40
48666;DHT22;34452;50.796;4.994;2023-04-25T12:34:27;10.40;84.50
48666;DHT22;34452;50.796;4.994;2023-04-25T12:36:53;10.30;87.10
48666;DHT22;34452;50.796;4.994;2023-04-25T12:39:21;10.30;85.30
48666;DHT22;34452;50.796;4.994;2023-04-25T12:41:48;10.30;87.20
48666;DHT22;34452;50.796;4.994;2023-04-25T12:44:14;10.30;90.00
48666;DHT22;34452;50.796;4.994;2023-04-25T12:46:40;10.50;89.80
48666;DHT22;34452;50.796;4.994;2023-04-25T12:49:07;10.60;89.20
48666;DHT22;34452;50.796;4.994;2023-04-25T12:51:34;10.60;88.50
48666;DHT22;34452;50.796;4.994;2023-04-25T12:54:00;10.80;91.00
48666;DHT22;34452;50.796;4.994;2023-04-25T12:56:26;10.80;91.60
48666;DHT22;34452;50.796;4.994;2023-04-25T12:58:53;10.90;92.00
48666;DHT22;34452;50.796;4.994;2023-04-25T13:01:20;11.30;90.70
48666;DHT22;34452;50.796;4.994;2023-04-25T13:03:47;11.60;90.10
48666;DHT22;34452;50.796;4.994;2023-04-25T13:06:14;12.00;90.40
48666;DHT22;34452;50.796;4.994;2023-04-25T13:08:40;12.30;84.20
48666;DHT22;34452;50.796;4.994;2023-04-25T13:11:07;12.80;81.30
48666;DHT22;34452;50.796;4.994;2023-04-25T13:13:32;13.10;82.60
48666;DHT22;34452;50.796;4.994;2023-04-25T13:16:01;13.30;76.00
48666;DHT22;34452;50.796;4.994;2023-04-25T13:18:28;13.30;75.70
48666;DHT22;34452;50.796;4.994;2023-04-25T13:20:53;13.30;71.30
48666;DHT22;34452;50.796;4.994;2023-04-25T13:23:19;13.00;75.20
48666;DHT22;34452;50.796;4.994;2023-04-25T13:25:46;12.50;70.50
48666;DHT22;34452;50.796;4.994;2023-04-25T13:28:12;12.10;74.20
48666;DHT22;34452;50.796;4.994;2023-04-25T13:30:38;11.80;69.80
48666;DHT22;34452;50.796;4.994;2023-04-25T13:33:04;11.50;72.20
48666;DHT22;34452;50.796;4.994;2023-04-25T13:35:33;11.30;73.50
48666;DHT22;34452;50.796;4.994;2023-04-25T13:37:59;11.20;75.20
48666;DHT22;34452;50.796;4.994;2023-04-25T13:40:26;11.10;76.20
48666;DHT22;34452;50.796;4.994;2023-04-25T13:42:52;11.10;77.50
48666;DHT22;34452;50.796;4.994;2023-04-25T13:45:19;11.20;80.10
48666;DHT22;34452;50.796;4.994;2023-04-25T13:47:45;11.20;78.50
48666;DHT22;34452;50.796;4.994;2023-04-25T13:50:11;11.30;74.90
48666;DHT22;34452;50.796;4.994;2023-04-25T13:52:37;11.40;73.60
48666;DHT22;34452;50.796;4.994;2023-04-25T13:55:03;11.50;75.50
48666;DHT22;34452;50.796;4.994;2023-04-25T13:57:30;11.70;73.10
48666;DHT22;34452;50.796;4.994;2023-04-25T13:59:56;12.10;70.70
48666;DHT22;34452;50.796;4.994;2023-04-25T14:02:22;12.50;68.50
48666;DHT22;34452;50.796;4.994;2023-04-25T14:04:48;12.50;67.90
48666;DHT22;34452;50.796;4.994;2023-04-25T14:07:14;12.30;67.00
48666;DHT22;34452;50.796;4.994;2023-04-25T14:10:10;12.40;70.10
48666;DHT22;34452;50.796;4.994;2023-04-25T14:12:36;12.70;66.60
48666;DHT22;34452;50.796;4.994;2023-04-25T14:15:02;12.90;67.90
48666;DHT22;34452;50.796;4.994;2023-04-25T14:17:28;13.10;67.60
48666;DHT22;34452;50.796;4.994;2023-04-25T14:19:53;13.30;65.40
48666;DHT22;34452;50.796;4.994;2023-04-25T14:22:20;13.50;67.70
48666;DHT22;34452;50.796;4.994;2023-04-25T14:24:45;13.70;71.60
48666;DHT22;34452;50.796;4.994;2023-04-25T14:27:11;13.70;67.50
48666;DHT22;34452;50.796;4.994;2023-04-25T14:29:37;13.60;71.40
48666;DHT22;34452;50.796;4.994;2023-04-25T14:32:03;13.70;67.90
48666;DHT22;34452;50.796;4.994;2023-04-25T14:34:30;13.70;67.90
48666;DHT22;34452;50.796;4.994;2023-04-25T14:36:56;13.90;68.90
48666;DHT22;34452;50.796;4.994;2023-04-25T14:39:22;14.30;66.10
48666;DHT22;34452;50.796;4.994;2023-04-25T14:41:47;14.50;65.90
48666;DHT22;34452;50.796;4.994;2023-04-25T14:44:13;14.70;58.30
48666;DHT22;34452;50.796;4.994;2023-04-25T14:46:39;14.60;58.50
48666;DHT22;34452;50.796;4.994;2023-04-25T14:49:04;14.60;59.10
48666;DHT22;34452;50.796;4.994;2023-04-25T14:51:30;14.70;54.60
48666;DHT22;34452;50.796;4.994;2023-04-25T14:53:56;14.80;54.30
48666;DHT22;34452;50.796;4.994;2023-04-25T14:56:22;14.60;55.90
48666;DHT22;34452;50.796;4.994;2023-04-25T14:58:48;14.10;58.80
48666;DHT22;34452;50.796;4.994;2023-04-25T15:01:14;13.60;61.40
48666;DHT22;34452;50.796;4.994;2023-04-25T15:03:40;12.70;61.90
48666;DHT22;34452;50.796;4.994;2023-04-25T15:06:06;12.20;63.20
48666;DHT22;34452;50.796;4.994;2023-04-25T15:08:32;12.10;64.20
48666;DHT22;34452;50.796;4.994;2023-04-25T15:10:58;12.10;66.20
48666;DHT22;34452;50.796;4.994;2023-04-25T15:13:24;12.10;64.80
48666;DHT22;34452;50.796;4.994;2023-04-25T15:15:50;12.00;65.70
48666;DHT22;34452;50.796;4.994;2023-04-25T15:18:19;12.00;67.40
48666;DHT22;34452;50.796;4.994;2023-04-25T15:20:47;12.00;66.30
48666;DHT22;34452;50.796;4.994;2023-04-25T15:23:13;12.10;66.30
48666;DHT22;34452;50.796;4.994;2023-04-25T15:25:38;12.60;65.20
48666;DHT22;34452;50.796;4.994;2023-04-25T15:28:04;13.20;67.60
48666;DHT22;34452;50.796;4.994;2023-04-25T15:30:30;13.30;64.30
48666;DHT22;34452;50.796;4.994;2023-04-25T15:32:55;13.00;63.60
48666;DHT22;34452;50.796;4.994;2023-04-25T15:35:21;12.80;63.00
48666;DHT22;34452;50.796;4.994;2023-04-25T15:37:47;13.00;63.90
48666;DHT22;34452;50.796;4.994;2023-04-25T15:40:15;13.70;61.20
48666;DHT22;34452;50.796;4.994;2023-04-25T15:42:42;14.50;62.40
48666;DHT22;34452;50.796;4.994;2023-04-25T15:45:09;14.80;59.50
48666;DHT22;34452;50.796;4.994;2023-04-25T15:47:36;14.80;57.70
48666;DHT22;34452;50.796;4.994;2023-04-25T15:50:04;15.10;56.20